Tropical Cyclones
[Index]
Main Index Home Page Stock Weather Photos Extreme Storms Discussion Storm News and Storm Chasing Reports Tropical Cyclones / Hurricanes / Typhoons Weather Data and Links Wild Fires / Bushfires Weather Observation Techniques Weather Picture Catalogue Tornado Pictures and Reports Stock Video Footage and DVDs for sale
Season 1971-1972 Tropical Cyclone SALLY Track Map
Season 1971-1972 Summaries: [BoM-AU] [JTWC-AU] [JTWC-SIO] [JTWC-SPAC] [JTWC-SH]
<<- Previous TC | JTWC 1971-1972 Season | Next TC ->>

click for intensity scale information  Lat/long Grid: Show Hide

 Date Labels: Show Hide

Joint Typhoon Warning Centre Cyclone Data

Name: SALLY
Number: 777 / 7206

03 Dec 1971 00:00 UTC to 13 Dec 1971 00:00 UTC

    date/time    lat    long     hPa   cat  kts
1971-12-03 00    7.0   125.0                  20          
1971-12-03 06    7.5   124.8                  15          
1971-12-03 12    8.0   124.5                  20          
1971-12-03 18    8.5   124.3            1     45          
1971-12-04 00    9.0   124.0            2     65          
1971-12-04 06    9.5   123.5            1     45          
1971-12-04 12   10.0   123.0                  20          
1971-12-04 18   10.5   122.5                  20          
1971-12-05 00   11.0   122.0                  25          
1971-12-05 06   11.4   121.7                  35          
1971-12-05 12   11.6   121.6            1     40          
1971-12-05 18   11.8   121.5                  30          
1971-12-06 00   12.0   121.3                  20          
1971-12-06 06   12.2   121.0                  25          
1971-12-06 12   12.5   120.6                  30          
1971-12-06 18   12.7   119.8                  35          
1971-12-07 00   13.0   119.1            1     40          
1971-12-07 06   13.6   119.0            1     40          
1971-12-07 12   14.3   119.0                  35          
1971-12-07 18   14.9   119.0                  30          
1971-12-08 00   15.5   119.0                  25          
1971-12-08 06   16.2   119.5                  20          
1971-12-08 12   16.9   120.2                  20          
1971-12-08 18   17.6   120.6                  15          
1971-12-09 00   18.0   121.0                  15          
1971-12-09 06   18.2   121.2                  15          
1971-12-09 12   18.5   121.5                  15          
1971-12-09 18   18.8   121.7                  20          
1971-12-10 00   19.0   122.0                  25          
1971-12-10 06   19.0   122.3                              
1971-12-10 12   19.0   122.6                              
1971-12-10 18   19.0   122.9                              
1971-12-11 00   19.0   123.2                              
1971-12-11 06   19.0   123.4                              
1971-12-11 12   19.0   123.7                              
1971-12-11 18   19.0   124.0                              
1971-12-12 00   19.0   124.5                              
1971-12-12 06   19.0   125.0                              
1971-12-12 12   19.0   125.5                              
1971-12-12 18   19.0   126.0                              
1971-12-13 00   19.0   126.5                              
Winds are 1-min average.

Tropical cyclone tracks developed by Michael Bath using data from the Joint Typhoon Warning Centre Best Tracks and Google Maps.


[Australian Severe Weather index] [Copyright Notice] [Email Contacts] [Search This Site] [Privacy Policy]
Document: tropical_cyclone_sally.htm Updated: 18 September 2016